createdAt,value
2022-12-27T00:01:53.454Z,0.91
2022-12-27T00:04:21.642Z,0.97
2022-12-27T00:06:51.720Z,1.03
2022-12-27T00:09:19.673Z,1.10
2022-12-27T00:11:47.796Z,1.13
2022-12-27T00:14:16.473Z,1.16
2022-12-27T00:16:44.646Z,1.16
2022-12-27T00:19:12.935Z,1.15
2022-12-27T00:21:41.112Z,1.12
2022-12-27T00:24:13.243Z,1.10
2022-12-27T00:26:41.976Z,1.07
2022-12-27T00:29:11.205Z,1.06
2022-12-27T00:31:39.410Z,1.04
2022-12-27T00:34:08.763Z,1.05
2022-12-27T00:36:37.076Z,1.06
2022-12-27T00:39:06.041Z,1.04
2022-12-27T00:41:36.143Z,1.01
2022-12-27T00:44:04.209Z,0.96
2022-12-27T00:46:32.422Z,0.92
2022-12-27T00:49:00.453Z,0.89
2022-12-27T00:51:28.689Z,0.88
2022-12-27T00:53:57.058Z,0.91
2022-12-27T00:56:27.181Z,0.92
2022-12-27T00:58:56.978Z,0.96
2022-12-27T01:01:27.243Z,1.00
2022-12-27T01:03:57.858Z,1.01
2022-12-27T01:06:34.899Z,1.05
2022-12-27T01:09:04.291Z,1.12
2022-12-27T01:11:33.182Z,1.18
2022-12-27T01:14:04.933Z,1.25
2022-12-27T01:16:34.302Z,1.29
2022-12-27T01:19:02.641Z,1.35
2022-12-27T01:21:31.645Z,1.37
2022-12-27T01:24:02.733Z,1.36
2022-12-27T01:26:31.233Z,1.36
2022-12-27T01:28:59.371Z,1.34
2022-12-27T01:31:29.681Z,1.34
2022-12-27T01:33:59.095Z,1.36
2022-12-27T01:36:28.442Z,1.39
2022-12-27T01:38:59.726Z,1.40
2022-12-27T01:41:47.065Z,1.45
2022-12-27T01:44:54.210Z,1.50
2022-12-27T01:47:30.612Z,1.56
2022-12-27T01:50:04.612Z,1.58
2022-12-27T01:52:39.799Z,1.63
2022-12-27T01:55:14.492Z,1.67
2022-12-27T01:57:43.542Z,1.71
2022-12-27T02:00:13.034Z,1.73
2022-12-27T02:02:42.866Z,1.78
2022-12-27T02:05:13.449Z,1.81
2022-12-27T02:07:50.376Z,1.82
2022-12-27T02:10:19.421Z,1.85
2022-12-27T02:12:48.883Z,1.86
2022-12-27T02:15:17.042Z,1.87
2022-12-27T02:17:46.918Z,1.89
2022-12-27T02:20:17.756Z,1.92
2022-12-27T02:23:39.365Z,1.93
2022-12-27T02:26:47.753Z,1.95
2022-12-27T02:29:50.131Z,2.00
2022-12-27T02:32:24.323Z,2.02
2022-12-27T02:35:00.463Z,2.07
2022-12-27T02:37:33.697Z,2.10
2022-12-27T02:40:18.421Z,2.12
2022-12-27T02:43:05.507Z,2.19
2022-12-27T02:45:56.929Z,2.23
2022-12-27T02:48:42.486Z,2.27
2022-12-27T02:51:48.734Z,2.34
2022-12-27T02:54:31.574Z,2.40
2022-12-27T02:57:11.261Z,2.44
2022-12-27T03:00:22.749Z,2.50
2022-12-27T03:03:25.050Z,2.55
2022-12-27T03:06:29.610Z,2.61
2022-12-27T03:09:08.120Z,2.66
2022-12-27T03:12:02.205Z,2.69
2022-12-27T03:14:56.134Z,2.73
2022-12-27T03:17:31.601Z,2.78
2022-12-27T03:20:25.137Z,2.83
2022-12-27T03:23:12.435Z,2.88
2022-12-27T03:25:44.085Z,2.93
2022-12-27T03:28:35.229Z,2.97
2022-12-27T03:31:25.892Z,3.02
2022-12-27T03:34:04.692Z,3.08
2022-12-27T03:36:53.144Z,3.13
2022-12-27T03:39:28.621Z,3.19
2022-12-27T03:42:20.401Z,3.21
2022-12-27T03:44:49.134Z,3.21
2022-12-27T03:47:24.888Z,3.20
2022-12-27T03:50:00.034Z,3.20
2022-12-27T03:52:35.929Z,3.22
2022-12-27T03:55:04.616Z,3.23
2022-12-27T03:57:33.095Z,3.25
2022-12-27T04:00:01.216Z,3.28
2022-12-27T04:02:30.418Z,3.29
2022-12-27T04:04:58.643Z,3.31
2022-12-27T04:07:26.859Z,3.33
2022-12-27T04:10:13.789Z,3.35
2022-12-27T04:12:59.215Z,3.38
2022-12-27T04:15:44.781Z,3.38
2022-12-27T04:18:30.366Z,3.38
2022-12-27T04:21:16.519Z,3.38
2022-12-27T04:24:02.054Z,3.39
2022-12-27T04:26:49.024Z,3.40
2022-12-27T04:29:34.720Z,3.42
2022-12-27T04:32:20.233Z,3.42
2022-12-27T04:34:48.228Z,3.45
2022-12-27T04:37:19.079Z,3.46
2022-12-27T04:40:09.969Z,3.49
2022-12-27T04:42:56.650Z,3.57
2022-12-27T04:45:42.051Z,3.62
2022-12-27T04:48:31.111Z,3.66
2022-12-27T04:51:16.801Z,3.67
2022-12-27T04:54:02.351Z,3.68
2022-12-27T04:56:30.464Z,3.69
2022-12-27T04:59:13.788Z,3.72
2022-12-27T05:01:59.927Z,3.76
2022-12-27T05:04:28.307Z,3.80
2022-12-27T05:06:57.509Z,3.80
2022-12-27T05:09:43.487Z,3.82
2022-12-27T05:12:29.586Z,3.84
2022-12-27T05:15:01.754Z,3.85
2022-12-27T05:17:31.607Z,3.86
2022-12-27T05:19:59.760Z,3.88
2022-12-27T05:22:59.869Z,3.90
2022-12-27T05:25:38.258Z,3.92
2022-12-27T05:28:08.475Z,3.94
2022-12-27T05:30:39.443Z,3.98
2022-12-27T05:33:08.085Z,3.99
2022-12-27T05:35:36.756Z,4.00
2022-12-27T05:38:05.551Z,4.03
2022-12-27T05:40:33.854Z,4.06
2022-12-27T05:43:02.897Z,4.07
2022-12-27T05:45:31.360Z,4.09
2022-12-27T05:48:01.458Z,4.11
2022-12-27T05:50:29.508Z,4.13
2022-12-27T05:52:57.943Z,4.14
2022-12-27T05:55:26.256Z,4.18
2022-12-27T05:57:54.368Z,4.21
2022-12-27T06:00:22.764Z,4.27
2022-12-27T06:02:50.930Z,4.31
2022-12-27T06:05:22.910Z,4.36
2022-12-27T06:07:51.156Z,4.38
2022-12-27T06:10:19.226Z,4.41
2022-12-27T06:12:47.434Z,4.45
2022-12-27T06:15:15.667Z,4.49
2022-12-27T06:17:44.460Z,4.52
2022-12-27T06:20:12.538Z,4.54
2022-12-27T06:22:42.161Z,4.59
2022-12-27T06:25:14.147Z,4.62
2022-12-27T06:27:42.965Z,4.63
2022-12-27T06:30:12.409Z,4.65
2022-12-27T06:32:40.916Z,4.66
2022-12-27T06:35:11.443Z,4.67
2022-12-27T06:37:39.652Z,4.67
2022-12-27T06:40:10.829Z,4.68
2022-12-27T06:42:38.903Z,4.70
2022-12-27T06:45:09.534Z,4.74
2022-12-27T06:47:37.645Z,4.76
2022-12-27T06:50:06.511Z,4.80
2022-12-27T06:52:34.949Z,4.82
2022-12-27T06:55:03.050Z,4.85
2022-12-27T06:57:32.501Z,4.87
2022-12-27T07:00:00.666Z,4.89
2022-12-27T07:02:29.129Z,4.93
2022-12-27T07:04:57.400Z,4.95
2022-12-27T07:07:25.714Z,4.96
2022-12-27T07:09:53.931Z,4.97
2022-12-27T07:12:21.958Z,4.98
2022-12-27T07:14:53.248Z,5.01
2022-12-27T07:17:22.708Z,5.01
2022-12-27T07:19:50.880Z,5.02
2022-12-27T07:22:18.995Z,5.03
2022-12-27T07:24:47.418Z,5.06
2022-12-27T07:27:16.375Z,5.11
2022-12-27T07:29:45.998Z,5.16
2022-12-27T07:32:15.630Z,5.19
2022-12-27T07:34:43.685Z,5.24
2022-12-27T07:37:11.961Z,5.31
2022-12-27T07:39:40.077Z,5.36
2022-12-27T07:42:08.624Z,5.41
2022-12-27T07:44:36.981Z,5.44
2022-12-27T07:47:05.684Z,5.45
2022-12-27T07:49:35.131Z,5.46
2022-12-27T07:52:03.475Z,5.45
2022-12-27T07:54:34.805Z,5.50
2022-12-27T07:57:05.419Z,5.60
2022-12-27T07:59:33.671Z,5.70
2022-12-27T08:02:07.868Z,5.75
2022-12-27T08:04:38.630Z,5.76
2022-12-27T08:07:10.324Z,5.76
2022-12-27T08:09:41.676Z,5.77
2022-12-27T08:12:10.707Z,5.75
2022-12-27T08:14:38.742Z,5.79
2022-12-27T08:17:09.195Z,5.83
2022-12-27T08:19:38.939Z,5.89
2022-12-27T08:22:07.207Z,5.96
2022-12-27T08:24:35.280Z,6.02
2022-12-27T08:27:03.980Z,6.05
2022-12-27T08:29:32.141Z,6.10
2022-12-27T08:32:00.795Z,6.13
2022-12-27T08:34:28.909Z,6.18
2022-12-27T08:36:58.804Z,6.25
2022-12-27T08:39:30.122Z,6.27
2022-12-27T08:41:58.434Z,6.28
2022-12-27T08:44:27.489Z,6.28
2022-12-27T08:46:55.554Z,6.31
2022-12-27T08:49:23.716Z,6.35
2022-12-27T08:51:51.916Z,6.38
2022-12-27T08:54:21.533Z,6.38
2022-12-27T08:56:49.599Z,6.40
2022-12-27T08:59:17.798Z,6.46
2022-12-27T09:01:46.135Z,6.52
2022-12-27T09:04:14.223Z,6.60
2022-12-27T09:06:42.614Z,6.63
2022-12-27T09:09:10.728Z,6.65
2022-12-27T09:11:40.279Z,6.72
2022-12-27T09:14:08.378Z,6.75
2022-12-27T09:16:37.282Z,6.79
2022-12-27T09:19:05.876Z,6.84
2022-12-27T09:21:35.342Z,6.87
2022-12-27T09:24:05.710Z,6.95
2022-12-27T09:26:33.893Z,7.01
2022-12-27T09:29:03.435Z,7.15
2022-12-27T09:31:31.686Z,7.28
2022-12-27T09:34:00.299Z,7.32
2022-12-27T09:36:29.965Z,7.41
2022-12-27T09:39:00.905Z,7.50
2022-12-27T09:44:47.373Z,7.60
2022-12-27T09:47:20.686Z,7.71
2022-12-27T09:49:53.737Z,7.78
2022-12-27T09:52:27.606Z,7.84
2022-12-27T09:55:04.713Z,7.79
2022-12-27T09:57:37.664Z,7.75
2022-12-27T10:00:16.195Z,7.79
2022-12-27T10:02:45.593Z,7.84
2022-12-27T10:05:22.776Z,7.83
2022-12-27T10:08:21.104Z,7.97
2022-12-27T10:11:33.825Z,8.06
2022-12-27T10:14:15.459Z,8.23
2022-12-27T10:17:01.303Z,8.38
2022-12-27T10:19:39.704Z,8.48
2022-12-27T10:22:21.981Z,8.58
2022-12-27T10:24:52.761Z,8.61
2022-12-27T10:27:29.107Z,8.61
2022-12-27T10:29:59.169Z,8.63
2022-12-27T10:32:47.128Z,8.60
2022-12-27T10:35:29.288Z,8.53
2022-12-27T10:38:00.973Z,8.52
2022-12-27T10:40:36.954Z,8.53
2022-12-27T10:43:07.020Z,8.55
2022-12-27T10:45:39.835Z,8.64
2022-12-27T10:48:22.151Z,8.76
2022-12-27T10:50:59.268Z,8.89
2022-12-27T10:53:39.239Z,9.04
2022-12-27T10:56:10.300Z,9.17
2022-12-27T10:58:46.667Z,9.25
2022-12-27T11:01:21.010Z,9.28
2022-12-27T11:04:21.561Z,9.38
2022-12-27T11:06:54.907Z,9.47
2022-12-27T11:09:42.408Z,9.59
2022-12-27T11:12:25.908Z,9.67
2022-12-27T11:14:57.778Z,9.74
2022-12-27T11:17:29.585Z,9.78
2022-12-27T11:20:02.164Z,9.79
2022-12-27T11:22:31.151Z,9.72
2022-12-27T11:25:02.041Z,9.64
2022-12-27T11:27:31.802Z,9.60
2022-12-27T11:30:01.108Z,9.59
2022-12-27T11:32:29.243Z,9.57
2022-12-27T11:35:02.200Z,9.62
2022-12-27T11:37:30.491Z,9.71
2022-12-27T11:40:23.288Z,9.82
2022-12-27T11:42:54.588Z,9.89
2022-12-27T11:45:27.309Z,9.97
2022-12-27T11:48:01.340Z,10.07
2022-12-27T11:50:49.402Z,10.21
2022-12-27T11:53:54.212Z,10.36
2022-12-27T11:56:26.832Z,10.50
2022-12-27T11:59:16.156Z,10.61
2022-12-27T12:02:17.084Z,10.72
2022-12-27T12:05:21.719Z,10.80
2022-12-27T12:08:12.555Z,10.81
2022-12-27T12:10:50.634Z,10.82
2022-12-27T12:13:33.511Z,10.83
2022-12-27T12:16:26.705Z,10.84
2022-12-27T12:19:08.996Z,10.91
2022-12-27T12:21:44.767Z,10.95
2022-12-27T12:24:37.506Z,10.92
2022-12-27T12:27:32.352Z,10.85
2022-12-27T12:30:33.121Z,10.89
2022-12-27T12:33:23.730Z,10.92
2022-12-27T12:36:15.123Z,10.93
2022-12-27T12:38:51.051Z,10.91
2022-12-27T12:41:39.008Z,10.89
2022-12-27T12:44:41.160Z,10.90
2022-12-27T12:47:24.717Z,10.92
2022-12-27T12:50:19.755Z,10.94
2022-12-27T12:53:19.701Z,10.88
2022-12-27T12:55:59.981Z,10.81
2022-12-27T12:58:43.201Z,10.76
2022-12-27T13:01:42.784Z,10.73
2022-12-27T13:04:31.058Z,10.70
2022-12-27T13:07:23.118Z,10.68
2022-12-27T13:10:17.047Z,10.65
2022-12-27T13:12:54.067Z,10.60
2022-12-27T13:15:32.708Z,10.57
2022-12-27T13:18:12.262Z,10.53
2022-12-27T13:21:00.606Z,10.50
2022-12-27T13:23:48.906Z,10.49
2022-12-27T13:26:25.807Z,10.47
2022-12-27T13:29:12.187Z,10.45
2022-12-27T13:31:48.992Z,10.46
2022-12-27T13:34:30.106Z,10.48
2022-12-27T13:37:12.693Z,10.52
2022-12-27T13:39:52.992Z,10.55
2022-12-27T13:42:43.127Z,10.58
2022-12-27T13:45:23.219Z,10.58
2022-12-27T13:48:06.111Z,10.60
2022-12-27T13:50:53.263Z,10.59
2022-12-27T13:53:56.423Z,10.62
2022-12-27T13:59:52.261Z,10.62
2022-12-27T14:02:53.648Z,10.63
2022-12-27T14:05:53.293Z,10.64
2022-12-27T14:08:34.395Z,10.67
2022-12-27T14:11:03.345Z,10.69
2022-12-27T14:13:35.977Z,10.72
2022-12-27T14:16:30.179Z,10.75
2022-12-27T14:19:31.465Z,10.68
2022-12-27T14:22:17.683Z,10.53
2022-12-27T14:25:22.994Z,10.18
2022-12-27T14:28:24.288Z,9.75
2022-12-27T14:31:27.889Z,9.50
2022-12-27T14:34:35.912Z,9.41
2022-12-27T14:37:40.068Z,9.40
2022-12-27T14:40:35.908Z,9.44
2022-12-27T14:43:36.405Z,9.39
2022-12-27T14:46:54.821Z,9.36
2022-12-27T14:49:51.267Z,9.28
2022-12-27T14:52:58.053Z,9.17
2022-12-27T14:55:48.225Z,9.15
2022-12-27T14:58:30.782Z,9.16
2022-12-27T15:01:09.703Z,9.11
2022-12-27T15:04:44.372Z,9.03
2022-12-27T15:07:45.081Z,9.02
2022-12-27T15:10:21.052Z,9.07
2022-12-27T15:13:00.100Z,9.10
2022-12-27T15:15:37.638Z,9.12
2022-12-27T15:18:29.640Z,9.13
2022-12-27T15:21:24.188Z,9.12
2022-12-27T15:23:55.266Z,9.10
2022-12-27T15:26:31.748Z,9.07
2022-12-27T15:29:14.233Z,9.03
2022-12-27T15:31:54.200Z,8.94
2022-12-27T15:34:37.359Z,8.89
2022-12-27T15:37:06.516Z,8.80
2022-12-27T15:39:51.272Z,8.74
2022-12-27T15:42:48.595Z,8.69
2022-12-27T15:45:31.620Z,8.64
2022-12-27T15:48:35.738Z,8.56
2022-12-27T15:51:16.305Z,8.41
2022-12-27T15:54:13.855Z,8.32
2022-12-27T15:56:55.410Z,8.30
2022-12-27T15:59:47.194Z,8.33
2022-12-27T16:02:34.045Z,8.33
2022-12-27T16:05:14.901Z,8.31
2022-12-27T16:07:46.430Z,8.22
2022-12-27T16:10:48.076Z,8.14
2022-12-27T16:13:29.117Z,8.01
2022-12-27T16:15:58.511Z,7.93
2022-12-27T16:18:56.209Z,7.81
2022-12-27T16:21:26.359Z,7.72
2022-12-27T16:23:59.143Z,7.69
2022-12-27T16:26:30.858Z,7.74
2022-12-27T16:29:02.024Z,7.82
2022-12-27T16:31:32.421Z,7.85
2022-12-27T16:34:14.278Z,7.89
2022-12-27T16:36:51.436Z,7.91
2022-12-27T16:39:58.528Z,7.90
2022-12-27T16:43:19.316Z,7.86
2022-12-27T16:45:55.457Z,7.82
2022-12-27T16:48:36.341Z,7.81
2022-12-27T16:51:18.379Z,7.78
2022-12-27T16:54:03.434Z,7.74
2022-12-27T16:56:33.698Z,7.73
2022-12-27T16:59:01.912Z,7.73
2022-12-27T17:01:46.324Z,7.73
2022-12-27T17:04:47.581Z,7.66
2022-12-27T17:07:42.474Z,7.60
2022-12-27T17:10:43.937Z,7.62
2022-12-27T17:13:18.946Z,7.63
2022-12-27T17:15:54.805Z,7.67
2022-12-27T17:18:30.453Z,7.71
2022-12-27T17:21:03.812Z,7.73
2022-12-27T17:23:42.680Z,7.68
2022-12-27T17:26:39.425Z,7.68
2022-12-27T17:29:29.340Z,7.68
2022-12-27T17:32:11.126Z,7.69
2022-12-27T17:34:52.690Z,7.66
2022-12-27T17:37:29.180Z,7.65
2022-12-27T17:40:12.234Z,7.60
2022-12-27T17:43:08.977Z,7.60
2022-12-27T17:46:03.855Z,7.60
2022-12-27T17:48:33.807Z,7.55
2022-12-27T17:51:06.232Z,7.49
2022-12-27T17:53:51.950Z,7.38
2022-12-27T17:56:41.263Z,7.32
2022-12-27T17:59:16.354Z,7.33
2022-12-27T18:01:51.612Z,7.36
2022-12-27T18:04:25.726Z,7.37
2022-12-27T18:06:58.510Z,7.35
2022-12-27T18:09:44.606Z,7.24
2022-12-27T18:12:21.532Z,7.21
2022-12-27T18:14:58.304Z,7.13
2022-12-27T18:17:37.684Z,7.06
2022-12-27T18:20:29.167Z,6.90
2022-12-27T18:23:14.775Z,6.75
2022-12-27T18:25:56.603Z,6.64
2022-12-27T18:28:33.032Z,6.52
2022-12-27T18:31:06.999Z,6.45
2022-12-27T18:33:44.003Z,6.41
2022-12-27T18:36:16.517Z,6.34
2022-12-27T18:38:48.443Z,6.32
2022-12-27T18:41:20.848Z,6.22
2022-12-27T18:43:54.269Z,6.18
2022-12-27T18:46:27.884Z,6.14
2022-12-27T18:48:56.289Z,6.11
2022-12-27T18:51:32.721Z,6.11
2022-12-27T18:54:01.207Z,6.08
2022-12-27T18:56:32.660Z,6.03
2022-12-27T18:59:06.055Z,6.03
2022-12-27T19:01:42.724Z,6.01
2022-12-27T19:04:23.641Z,6.04
2022-12-27T19:07:05.520Z,6.06
2022-12-27T19:09:38.055Z,5.98
2022-12-27T19:12:09.863Z,5.90
2022-12-27T19:14:47.302Z,5.87
2022-12-27T19:17:20.800Z,5.86
2022-12-27T19:19:52.713Z,5.77
2022-12-27T19:22:43.622Z,5.72
2022-12-27T19:25:23.077Z,5.70
2022-12-27T19:27:59.398Z,5.69
2022-12-27T19:30:39.367Z,5.67
2022-12-27T19:33:13.945Z,5.63
2022-12-27T19:35:43.357Z,5.59
2022-12-27T19:38:24.467Z,5.61
2022-12-27T19:41:01.325Z,5.61
2022-12-27T19:43:37.633Z,5.62
2022-12-27T19:46:07.495Z,5.58
2022-12-27T19:48:35.951Z,5.53
2022-12-27T19:51:04.803Z,5.54
2022-12-27T19:53:39.920Z,5.49
2022-12-27T19:56:12.192Z,5.44
2022-12-27T19:58:40.433Z,5.46
2022-12-27T20:01:11.315Z,5.49
2022-12-27T20:03:40.982Z,5.51
2022-12-27T20:06:14.815Z,5.50
2022-12-27T20:08:51.632Z,5.47
2022-12-27T20:11:22.048Z,5.42
2022-12-27T20:13:53.685Z,5.39
2022-12-27T20:16:27.492Z,5.41
2022-12-27T20:18:55.612Z,5.42
2022-12-27T20:21:24.101Z,5.42
2022-12-27T20:23:54.210Z,5.40
2022-12-27T20:26:26.977Z,5.34
2022-12-27T20:28:59.035Z,5.30
2022-12-27T20:31:42.156Z,5.30
2022-12-27T20:34:12.908Z,5.24
2022-12-27T20:36:42.054Z,5.22
2022-12-27T20:39:16.687Z,5.23
2022-12-27T20:41:56.082Z,5.26
2022-12-27T20:44:24.597Z,5.26
2022-12-27T20:46:57.088Z,5.24
2022-12-27T20:49:29.187Z,5.23
2022-12-27T20:51:57.651Z,5.17
2022-12-27T20:54:28.612Z,5.13
2022-12-27T20:56:56.811Z,5.08
2022-12-27T20:59:25.338Z,5.08
2022-12-27T21:01:58.534Z,5.07
2022-12-27T21:04:27.272Z,5.01
2022-12-27T21:06:59.391Z,5.01
2022-12-27T21:09:28.240Z,5.02
2022-12-27T21:11:56.273Z,5.03
2022-12-27T21:14:25.020Z,5.01
2022-12-27T21:16:56.033Z,4.99
2022-12-27T21:19:27.494Z,4.95
2022-12-27T21:21:58.193Z,4.94
2022-12-27T21:24:29.219Z,4.98
2022-12-27T21:26:57.709Z,4.97
2022-12-27T21:29:29.002Z,4.96
2022-12-27T21:32:01.599Z,4.92
2022-12-27T21:34:56.386Z,4.94
2022-12-27T21:37:26.102Z,4.98
2022-12-27T21:39:56.457Z,4.98
2022-12-27T21:42:26.223Z,4.96
2022-12-27T21:44:55.543Z,4.92
2022-12-27T21:47:29.354Z,4.95
2022-12-27T21:49:59.063Z,4.96
2022-12-27T21:52:31.167Z,4.97
2022-12-27T21:54:59.277Z,5.00
2022-12-27T21:57:28.225Z,5.06
2022-12-27T21:59:59.403Z,5.04
2022-12-27T22:02:31.136Z,5.02
2022-12-27T22:05:05.642Z,5.01
2022-12-27T22:07:40.706Z,5.03
2022-12-27T22:10:19.377Z,5.07
2022-12-27T22:12:50.279Z,5.13
2022-12-27T22:15:36.834Z,5.17
2022-12-27T22:18:05.211Z,5.20
2022-12-27T22:20:37.124Z,5.23
2022-12-27T22:23:12.674Z,5.22
2022-12-27T22:25:42.930Z,5.24
2022-12-27T22:28:16.285Z,5.28
2022-12-27T22:30:44.792Z,5.26
2022-12-27T22:33:27.739Z,5.23
2022-12-27T22:36:05.038Z,5.19
2022-12-27T22:38:34.012Z,5.22
2022-12-27T22:41:12.706Z,5.27
2022-12-27T22:43:41.817Z,5.29
2022-12-27T22:46:18.849Z,5.29
2022-12-27T22:48:50.793Z,5.31
2022-12-27T22:51:21.997Z,5.32
2022-12-27T22:53:57.004Z,5.33
2022-12-27T22:56:30.616Z,5.31
2022-12-27T22:58:59.700Z,5.32
2022-12-27T23:01:34.017Z,5.28
2022-12-27T23:04:05.241Z,5.28
2022-12-27T23:06:37.006Z,5.29
2022-12-27T23:09:31.495Z,5.26
2022-12-27T23:12:06.919Z,5.21
2022-12-27T23:14:35.030Z,5.15
2022-12-27T23:17:11.837Z,5.10
2022-12-27T23:19:40.087Z,5.09
2022-12-27T23:22:10.820Z,5.11
2022-12-27T23:24:42.207Z,5.13
2022-12-27T23:27:12.548Z,5.11
2022-12-27T23:29:41.554Z,5.11
2022-12-27T23:32:10.384Z,5.12
2022-12-27T23:34:39.769Z,5.11
2022-12-27T23:37:10.450Z,5.13
2022-12-27T23:39:39.433Z,5.12
2022-12-27T23:42:11.092Z,5.13
2022-12-27T23:44:48.024Z,5.13
2022-12-27T23:47:16.167Z,5.13
2022-12-27T23:49:44.346Z,5.10
2022-12-27T23:52:18.571Z,5.08
2022-12-27T23:54:48.660Z,5.08
2022-12-27T23:57:22.415Z,5.07
2022-12-27T23:59:51.870Z,5.06
